Sagres — CTEC — position and weather

sailwx.info

Track history (hours):
 
Tides and Currents Weather Stations Pressure Air Temp Water Temp Dewpoint Dewpoint Depression Visibility Wind Speed Wind Dir Waves Ship Positions

Sagres (Portugal)

Last reported at 2017-Sep-14 22:59 UTC. Time now 2017-Sep-24 06:59 UTC.
Position N 39°06' W 009°39'.
Warning: this ship's position is 9 days out of date.

Length 90 m; draft 5.5 m.

Type: Sailing vessel. MMSI: 263141000.

Date/timePositionNaut miles runAvg speedWind from/ knotsBaromVisibWave heightAir tempDewpointWater temp
2017-Sep-14 22:59N 39°06' W 009°39'2 3.8
2017-Sep-14 22:30N 39°04' W 009°39'2 3.8
2017-Sep-14 22:00N 39°02' W 009°39'2 4.0
2017-Sep-14 21:30N 39°00' W 009°39'2 4.4
2017-Sep-14 21:00N 38°58' W 009°38'2 4.8
2017-Sep-14 20:30N 38°56' W 009°38'2 5.0
2017-Sep-14 20:00N 38°53' W 009°38'2 4.9
2017-Sep-14 19:30N 38°51' W 009°38'3 5.0
2017-Sep-14 19:00N 38°48' W 009°36'3 5.4
2017-Sep-14 18:30N 38°46' W 009°35'3 5.0
2017-Sep-14 18:00N 38°44' W 009°34'2 4.8
2017-Sep-14 17:30N 38°41' W 009°33'2 4.7
2017-Sep-14 17:00N 38°39' W 009°31'  
2017-Sep-09 08:33N 38°42' W 009°09'0 5.4
2017-Sep-09 08:31N 38°42' W 009°09'2 4.9
2017-Sep-09 08:01N 38°41' W 009°12'3 5.2
2017-Sep-09 07:29N 38°41' W 009°16'2 5.0
2017-Sep-09 07:00N 38°40' W 009°18'2 4.9
2017-Sep-09 06:30N 38°39' W 009°21'3 5.9
2017-Sep-09 06:01N 38°36' W 009°23'3 5.3
2017-Sep-09 05:31N 38°34' W 009°25'2 5.0
2017-Sep-09 05:01N 38°32' W 009°27'1 2.9
2017-Sep-09 04:31N 38°33' W 009°28'3 5.9
2017-Sep-09 04:01N 38°35' W 009°31'3 6.3
2017-Sep-09 03:31N 38°37' W 009°34'3 6.7
2017-Sep-09 03:01N 38°39' W 009°37'3 6.3
2017-Sep-09 02:30N 38°42' W 009°40'3 5.4
2017-Sep-09 02:00N 38°44' W 009°38'3 6.1
2017-Sep-09 01:31N 38°47' W 009°38'3 6.0
2017-Sep-09 01:00N 38°50' W 009°38'3 6.2
2017-Sep-09 00:30N 38°53' W 009°38'3 6.1
2017-Sep-09 00:00N 38°56' W 009°37'3 6.5
2017-Sep-08 23:31N 38°59' W 009°36'3 6.3
2017-Sep-08 23:00N 39°02' W 009°35'3 6.6
2017-Sep-08 22:30N 39°05' W 009°33'3 6.6
2017-Sep-08 22:01N 39°08' W 009°32'3 6.2
2017-Sep-08 21:30N 39°11' W 009°31'2 3.5
2017-Sep-08 21:00N 39°13' W 009°30'2 3.5
2017-Sep-08 20:30N 39°15' W 009°30'2 3.8
2017-Sep-08 20:01N 39°16' W 009°29'2 3.9
2017-Sep-08 19:31N 39°18' W 009°29'2 3.8
2017-Sep-08 19:00N 39°20' W 009°28'2 2.9
2017-Sep-08 18:27N 39°22' W 009°28'1 2.4
2017-Sep-08 17:59N 39°23' W 009°27'1 2.3
2017-Sep-08 17:30N 39°24' W 009°27'1 2.6
2017-Sep-08 17:00N 39°25' W 009°27'2 3.0
2017-Sep-08 16:29N 39°27' W 009°27'29 4.5
2017-Sep-08 09:53N 39°56' W 009°29'5 5.6
2017-Sep-08 08:58N 40°01' W 009°29'3 5.7
2017-Sep-08 08:28N 40°04' W 009°29'3 5.5
2017-Sep-08 08:00N 40°07' W 009°29'3 5.1
2017-Sep-08 07:29N 40°09' W 009°29'2 4.9
2017-Sep-08 07:00N 40°12' W 009°30'2 5.0
2017-Sep-08 06:30N 40°14' W 009°30'3 5.1
2017-Sep-08 05:58N 40°17' W 009°30'3 4.9
2017-Sep-08 05:23N 40°20' W 009°30'3 5.4
2017-Sep-08 04:53N 40°22' W 009°30'2 5.2
2017-Sep-08 04:28N 40°25' W 009°30'2 5.2
2017-Sep-08 04:01N 40°27' W 009°30'3 5.5
2017-Sep-08 03:30N 40°30' W 009°30'3 6.5
2017-Sep-08 02:59N 40°33' W 009°30'3 7.1
2017-Sep-08 02:30N 40°37' W 009°30'3 6.5
2017-Sep-08 02:00N 40°40' W 009°31'4 6.4
2017-Sep-08 01:25N 40°44' W 009°31'3 6.4
2017-Sep-08 00:53N 40°47' W 009°31'3 6.4
2017-Sep-08 00:28N 40°50' W 009°31'3 6.3
2017-Sep-08 00:00N 40°52' W 009°32'3 6.3
2017-Sep-07 23:30N 40°56' W 009°32'3 6.7
2017-Sep-07 23:00N 40°59' W 009°32'4 7.1
2017-Sep-07 22:29N 41°02' W 009°34'4 7.5
2017-Sep-07 22:00N 41°06' W 009°35'4 7.1
2017-Sep-07 21:30N 41°09' W 009°37'4 8.1
2017-Sep-07 21:00N 41°13' W 009°39'5 8.3
2017-Sep-07 20:23N 41°18' W 009°42'3 9.0
2017-Sep-07 20:00N 41°21' W 009°43'4 8.4
2017-Sep-07 19:29N 41°25' W 009°45'  
Track history (hours):
 
Tides and Currents Weather Stations Pressure Air Temp Water Temp Dewpoint Dewpoint Depression Visibility Wind Speed Wind Dir Waves Ship Positions

Sagres (Portugal)

Last reported at 2017-Sep-14 22:59 UTC. Time now 2017-Sep-24 06:59 UTC.
Position N 39°06' W 009°39'.
Warning: this ship's position is 9 days out of date.

Length 90 m; draft 5.5 m.

Type: Sailing vessel. MMSI: 263141000.

Date/timePositionNaut miles runAvg speedWind from/ knotsBaromVisibWave heightAir tempDewpointWater temp
2017-Sep-14 22:59N 39°06' W 009°39'2 3.8
2017-Sep-14 22:30N 39°04' W 009°39'2 3.8
2017-Sep-14 22:00N 39°02' W 009°39'2 4.0
2017-Sep-14 21:30N 39°00' W 009°39'2 4.4
2017-Sep-14 21:00N 38°58' W 009°38'2 4.8
2017-Sep-14 20:30N 38°56' W 009°38'2 5.0
2017-Sep-14 20:00N 38°53' W 009°38'2 4.9
2017-Sep-14 19:30N 38°51' W 009°38'3 5.0
2017-Sep-14 19:00N 38°48' W 009°36'3 5.4
2017-Sep-14 18:30N 38°46' W 009°35'3 5.0
2017-Sep-14 18:00N 38°44' W 009°34'2 4.8
2017-Sep-14 17:30N 38°41' W 009°33'2 4.7
2017-Sep-14 17:00N 38°39' W 009°31'  
2017-Sep-09 08:33N 38°42' W 009°09'0 5.4
2017-Sep-09 08:31N 38°42' W 009°09'2 4.9
2017-Sep-09 08:01N 38°41' W 009°12'3 5.2
2017-Sep-09 07:29N 38°41' W 009°16'2 5.0
2017-Sep-09 07:00N 38°40' W 009°18'2 4.9
2017-Sep-09 06:30N 38°39' W 009°21'3 5.9
2017-Sep-09 06:01N 38°36' W 009°23'3 5.3
2017-Sep-09 05:31N 38°34' W 009°25'2 5.0
2017-Sep-09 05:01N 38°32' W 009°27'1 2.9
2017-Sep-09 04:31N 38°33' W 009°28'3 5.9
2017-Sep-09 04:01N 38°35' W 009°31'3 6.3
2017-Sep-09 03:31N 38°37' W 009°34'3 6.7
2017-Sep-09 03:01N 38°39' W 009°37'3 6.3
2017-Sep-09 02:30N 38°42' W 009°40'3 5.4
2017-Sep-09 02:00N 38°44' W 009°38'3 6.1
2017-Sep-09 01:31N 38°47' W 009°38'3 6.0
2017-Sep-09 01:00N 38°50' W 009°38'3 6.2
2017-Sep-09 00:30N 38°53' W 009°38'3 6.1
2017-Sep-09 00:00N 38°56' W 009°37'3 6.5
2017-Sep-08 23:31N 38°59' W 009°36'3 6.3
2017-Sep-08 23:00N 39°02' W 009°35'3 6.6
2017-Sep-08 22:30N 39°05' W 009°33'3 6.6
2017-Sep-08 22:01N 39°08' W 009°32'3 6.2
2017-Sep-08 21:30N 39°11' W 009°31'2 3.5
2017-Sep-08 21:00N 39°13' W 009°30'2 3.5
2017-Sep-08 20:30N 39°15' W 009°30'2 3.8
2017-Sep-08 20:01N 39°16' W 009°29'2 3.9
2017-Sep-08 19:31N 39°18' W 009°29'2 3.8
2017-Sep-08 19:00N 39°20' W 009°28'2 2.9
2017-Sep-08 18:27N 39°22' W 009°28'1 2.4
2017-Sep-08 17:59N 39°23' W 009°27'1 2.3
2017-Sep-08 17:30N 39°24' W 009°27'1 2.6
2017-Sep-08 17:00N 39°25' W 009°27'2 3.0
2017-Sep-08 16:29N 39°27' W 009°27'29 4.5
2017-Sep-08 09:53N 39°56' W 009°29'5 5.6
2017-Sep-08 08:58N 40°01' W 009°29'3 5.7
2017-Sep-08 08:28N 40°04' W 009°29'3 5.5
2017-Sep-08 08:00N 40°07' W 009°29'3 5.1
2017-Sep-08 07:29N 40°09' W 009°29'2 4.9
2017-Sep-08 07:00N 40°12' W 009°30'2 5.0
2017-Sep-08 06:30N 40°14' W 009°30'3 5.1
2017-Sep-08 05:58N 40°17' W 009°30'3 4.9
2017-Sep-08 05:23N 40°20' W 009°30'3 5.4
2017-Sep-08 04:53N 40°22' W 009°30'2 5.2
2017-Sep-08 04:28N 40°25' W 009°30'2 5.2
2017-Sep-08 04:01N 40°27' W 009°30'3 5.5
2017-Sep-08 03:30N 40°30' W 009°30'3 6.5
2017-Sep-08 02:59N 40°33' W 009°30'3 7.1
2017-Sep-08 02:30N 40°37' W 009°30'3 6.5
2017-Sep-08 02:00N 40°40' W 009°31'4 6.4
2017-Sep-08 01:25N 40°44' W 009°31'3 6.4
2017-Sep-08 00:53N 40°47' W 009°31'3 6.4
2017-Sep-08 00:28N 40°50' W 009°31'3 6.3
2017-Sep-08 00:00N 40°52' W 009°32'3 6.3
2017-Sep-07 23:30N 40°56' W 009°32'3 6.7
2017-Sep-07 23:00N 40°59' W 009°32'4 7.1
2017-Sep-07 22:29N 41°02' W 009°34'4 7.5
2017-Sep-07 22:00N 41°06' W 009°35'4 7.1
2017-Sep-07 21:30N 41°09' W 009°37'4 8.1
2017-Sep-07 21:00N 41°13' W 009°39'5 8.3
2017-Sep-07 20:23N 41°18' W 009°42'3 9.0
2017-Sep-07 20:00N 41°21' W 009°43'4 8.4
2017-Sep-07 19:29N 41°25' W 009°45'  

Dump ship's entire track history